createdAt,value
2023-01-29T00:00:36.168Z,1.08
2023-01-29T00:05:41.572Z,0.82
2023-01-29T00:10:44.105Z,0.82
2023-01-29T00:15:55.184Z,1.09
2023-01-29T00:20:59.918Z,1.12
2023-01-29T00:26:02.483Z,0.88
2023-01-29T00:31:09.134Z,1.10
2023-01-29T00:36:15.014Z,1.14
2023-01-29T00:41:34.949Z,1.07
2023-01-29T00:46:37.561Z,0.78
2023-01-29T00:51:41.483Z,0.94
2023-01-29T00:56:44.051Z,0.96
2023-01-29T01:02:04.866Z,1.16
2023-01-29T01:07:08.934Z,1.11
2023-01-29T01:12:11.897Z,1.06
2023-01-29T01:17:15.536Z,1.01
2023-01-29T01:22:19.784Z,0.97
2023-01-29T01:27:22.581Z,0.70
2023-01-29T01:32:25.925Z,0.90
2023-01-29T01:37:30.075Z,0.85
2023-01-29T01:42:33.009Z,0.78
2023-01-29T01:47:41.174Z,0.95
2023-01-29T01:52:48.605Z,0.65
2023-01-29T01:57:56.447Z,0.68
2023-01-29T02:03:17.003Z,0.74
2023-01-29T02:08:48.205Z,0.68
2023-01-29T02:13:53.614Z,0.59
2023-01-29T02:19:01.543Z,0.65
2023-01-29T02:24:29.030Z,0.73
2023-01-29T02:29:45.658Z,0.70
2023-01-29T02:35:14.657Z,0.42
2023-01-29T02:40:28.133Z,0.05
2023-01-29T02:45:38.629Z,0.37
2023-01-29T02:50:47.421Z,0.32
2023-01-29T02:55:54.214Z,0.34
2023-01-29T03:01:03.867Z,0.66
2023-01-29T03:06:18.145Z,0.64
2023-01-29T03:11:21.813Z,0.75
2023-01-29T03:16:32.938Z,0.55
2023-01-29T03:21:55.046Z,0.43
2023-01-29T03:27:19.977Z,0.47
2023-01-29T03:32:26.509Z,0.80
2023-01-29T03:37:34.937Z,0.72
2023-01-29T03:42:56.836Z,0.75
2023-01-29T03:48:10.349Z,0.62
2023-01-29T03:53:22.831Z,0.82
2023-01-29T03:58:35.657Z,0.86
2023-01-29T04:03:42.959Z,0.91
2023-01-29T04:08:53.306Z,1.00
2023-01-29T04:13:57.231Z,1.00
2023-01-29T04:19:01.554Z,0.72
2023-01-29T04:24:09.574Z,0.74
2023-01-29T04:29:27.820Z,0.79
2023-01-29T04:34:46.973Z,0.86
2023-01-29T04:39:55.783Z,0.88
2023-01-29T04:45:06.600Z,0.91
2023-01-29T04:50:16.342Z,0.95
2023-01-29T04:55:26.531Z,1.03
2023-01-29T05:00:32.387Z,0.89
2023-01-29T05:05:37.078Z,1.09
2023-01-29T05:10:40.137Z,1.03
2023-01-29T05:15:46.218Z,0.97
2023-01-29T05:20:51.174Z,1.06
2023-01-29T05:25:54.434Z,1.17
2023-01-29T05:30:57.722Z,1.16
2023-01-29T05:36:02.164Z,1.16
2023-01-29T05:41:04.738Z,1.30
2023-01-29T05:46:07.407Z,1.26
2023-01-29T05:51:11.371Z,1.30
2023-01-29T05:56:14.165Z,1.31
2023-01-29T06:01:19.727Z,1.19
2023-01-29T06:06:23.669Z,1.19
2023-01-29T06:11:26.623Z,1.11
2023-01-29T06:16:29.596Z,1.19
2023-01-29T06:21:33.499Z,1.15
2023-01-29T06:26:36.033Z,1.14
2023-01-29T06:31:39.700Z,1.41
2023-01-29T06:36:43.777Z,1.43
2023-01-29T06:41:46.365Z,1.33
2023-01-29T06:46:48.922Z,1.25
2023-01-29T06:51:53.202Z,1.51
2023-01-29T06:56:56.185Z,1.48
2023-01-29T07:01:59.439Z,1.49
2023-01-29T07:07:03.354Z,1.51
2023-01-29T07:12:06.115Z,1.50
2023-01-29T07:17:08.659Z,1.47
2023-01-29T07:22:12.533Z,1.49
2023-01-29T07:27:15.164Z,1.43
2023-01-29T07:32:17.803Z,1.40
2023-01-29T07:37:21.693Z,1.54
2023-01-29T07:42:24.336Z,1.49
2023-01-29T07:47:26.852Z,1.65
2023-01-29T07:52:31.893Z,1.62
2023-01-29T07:57:34.432Z,1.62
2023-01-29T08:02:37.019Z,1.59
2023-01-29T08:07:40.949Z,1.74
2023-01-29T08:12:44.074Z,1.74
2023-01-29T08:17:57.440Z,1.75
2023-01-29T08:23:02.995Z,1.65
2023-01-29T08:28:06.625Z,1.55
2023-01-29T08:33:09.318Z,1.61
2023-01-29T08:38:13.215Z,1.83
2023-01-29T08:43:16.157Z,1.73
2023-01-29T08:48:18.777Z,1.72
2023-01-29T08:53:24.791Z,1.71
2023-01-29T08:58:27.329Z,1.77
2023-01-29T09:03:29.864Z,1.73
2023-01-29T09:14:04.410Z,1.87
2023-01-29T09:19:08.150Z,1.93
2023-01-29T09:24:10.761Z,1.82
2023-01-29T09:29:15.125Z,1.84
2023-01-29T09:34:17.998Z,1.92
2023-01-29T09:39:21.606Z,1.99
2023-01-29T09:44:44.714Z,2.05
2023-01-29T09:49:52.233Z,2.18
2023-01-29T09:55:01.819Z,2.17
2023-01-29T10:00:15.611Z,2.02
2023-01-29T10:05:41.450Z,2.18
2023-01-29T10:10:51.212Z,2.14
2023-01-29T10:16:12.199Z,2.35
2023-01-29T10:21:33.018Z,2.41
2023-01-29T10:26:37.857Z,2.43
2023-01-29T10:31:41.851Z,2.28
2023-01-29T10:36:46.866Z,2.56
2023-01-29T10:42:08.591Z,2.60
2023-01-29T10:47:30.252Z,2.53
2023-01-29T10:52:44.009Z,2.65
2023-01-29T10:58:02.763Z,2.60
2023-01-29T11:03:27.508Z,2.72
2023-01-29T11:08:35.550Z,2.67
2023-01-29T11:13:43.577Z,2.79
2023-01-29T11:18:53.625Z,2.82
2023-01-29T11:24:07.613Z,2.57
2023-01-29T11:29:40.190Z,2.81
2023-01-29T11:35:02.232Z,2.95
2023-01-29T11:40:38.538Z,3.06
2023-01-29T11:45:41.521Z,3.13
2023-01-29T11:50:52.061Z,3.18
2023-01-29T11:55:55.819Z,2.98
2023-01-29T12:00:59.900Z,3.22
2023-01-29T12:06:07.892Z,3.43
2023-01-29T12:11:13.237Z,3.49
2023-01-29T12:16:24.706Z,3.55
2023-01-29T12:21:35.748Z,3.73
2023-01-29T12:26:45.479Z,3.49
2023-01-29T12:31:53.241Z,3.58
2023-01-29T12:37:04.073Z,3.80
2023-01-29T12:42:15.357Z,3.58
2023-01-29T12:47:24.795Z,3.70
2023-01-29T12:52:38.753Z,3.76
2023-01-29T12:57:46.860Z,3.68
2023-01-29T13:02:55.746Z,3.60
2023-01-29T13:08:08.446Z,3.79
2023-01-29T13:13:17.374Z,3.84
2023-01-29T13:18:40.472Z,3.61
2023-01-29T13:23:47.929Z,3.74
2023-01-29T13:28:52.178Z,3.72
2023-01-29T13:34:00.081Z,3.50
2023-01-29T13:39:06.628Z,3.63
2023-01-29T13:44:21.391Z,3.63
2023-01-29T13:49:33.730Z,3.64
2023-01-29T13:54:38.377Z,3.62
2023-01-29T13:59:52.971Z,3.76
2023-01-29T14:05:28.921Z,3.53
2023-01-29T14:10:34.577Z,3.63
2023-01-29T14:15:39.214Z,3.74
2023-01-29T14:20:51.616Z,3.79
2023-01-29T14:25:56.285Z,3.59
2023-01-29T14:30:59.808Z,3.63
2023-01-29T14:36:07.100Z,3.77
2023-01-29T14:41:23.338Z,3.61
2023-01-29T14:46:45.862Z,3.62
2023-01-29T14:51:49.292Z,3.70
2023-01-29T14:57:00.343Z,3.62
2023-01-29T15:02:13.685Z,3.61
2023-01-29T15:07:27.952Z,3.72
2023-01-29T15:12:37.215Z,3.78
2023-01-29T15:17:49.552Z,3.86
2023-01-29T15:22:52.077Z,3.85
2023-01-29T15:27:59.221Z,3.76
2023-01-29T15:33:03.517Z,3.64
2023-01-29T15:38:08.210Z,3.63
2023-01-29T15:43:22.392Z,3.43
2023-01-29T15:48:37.380Z,3.45
2023-01-29T15:53:45.469Z,3.59
2023-01-29T15:58:51.251Z,3.44
2023-01-29T16:03:55.327Z,3.59
2023-01-29T16:08:59.233Z,3.56
2023-01-29T16:14:04.370Z,3.45
2023-01-29T16:19:20.663Z,3.62
2023-01-29T16:24:24.917Z,3.72
2023-01-29T16:29:33.643Z,3.82
2023-01-29T16:34:39.724Z,3.83
2023-01-29T16:39:47.225Z,3.62
2023-01-29T16:44:55.186Z,3.88
2023-01-29T16:50:00.577Z,3.88
2023-01-29T16:55:20.425Z,3.81
2023-01-29T17:00:27.301Z,3.79
2023-01-29T17:05:33.223Z,3.93
2023-01-29T17:10:36.383Z,3.91
2023-01-29T17:15:47.012Z,3.90
2023-01-29T17:20:50.736Z,3.98
2023-01-29T17:25:54.360Z,3.88
2023-01-29T17:31:06.291Z,3.95
2023-01-29T17:36:12.297Z,3.94
2023-01-29T17:41:22.274Z,3.95
2023-01-29T17:46:27.340Z,3.87
2023-01-29T17:51:29.895Z,4.00
2023-01-29T17:56:32.513Z,3.86
2023-01-29T18:01:36.868Z,3.90
2023-01-29T18:06:41.523Z,4.01
2023-01-29T18:11:44.405Z,4.03
2023-01-29T18:16:49.063Z,3.93
2023-01-29T18:21:53.340Z,3.79
2023-01-29T18:26:56.612Z,3.95
2023-01-29T18:32:02.062Z,3.93
2023-01-29T18:37:04.958Z,4.01
2023-01-29T18:42:07.529Z,4.11
2023-01-29T18:47:11.448Z,4.04
2023-01-29T18:52:15.067Z,3.91
2023-01-29T18:58:29.356Z,3.95
2023-01-29T19:02:42.897Z,3.98
2023-01-29T19:07:46.212Z,3.99
2023-01-29T19:12:49.074Z,3.86
2023-01-29T19:17:53.182Z,3.98
2023-01-29T19:22:56.259Z,3.96
2023-01-29T19:27:58.887Z,4.18
2023-01-29T19:33:04.403Z,4.19
2023-01-29T19:38:07.449Z,4.80
2023-01-29T19:43:10.142Z,4.59
2023-01-29T19:48:14.388Z,4.34
2023-01-29T19:53:17.197Z,4.37
2023-01-29T19:58:19.763Z,4.18
2023-01-29T20:03:24.157Z,4.29
2023-01-29T20:08:26.710Z,3.94
2023-01-29T20:13:29.746Z,3.72
2023-01-29T20:18:34.184Z,3.90
2023-01-29T20:23:38.913Z,3.90
2023-01-29T20:28:42.126Z,4.03
2023-01-29T20:33:46.095Z,4.03
2023-01-29T20:38:48.807Z,4.02
2023-01-29T20:50:51.907Z,4.10
2023-01-29T20:55:55.924Z,3.20
2023-01-29T21:00:59.111Z,3.85
2023-01-29T21:06:03.059Z,3.92
2023-01-29T21:11:07.675Z,4.06
2023-01-29T21:16:11.286Z,4.02
2023-01-29T21:21:15.318Z,4.06
2023-01-29T21:26:18.818Z,4.04
2023-01-29T21:31:21.713Z,4.09
2023-01-29T21:36:25.941Z,3.85
2023-01-29T21:41:43.273Z,4.12
2023-01-29T21:46:45.865Z,4.15
2023-01-29T21:51:50.102Z,4.14
2023-01-29T21:56:52.657Z,4.32
2023-01-29T22:01:55.257Z,4.02
2023-01-29T22:06:59.255Z,4.13
2023-01-29T22:12:01.926Z,4.19
2023-01-29T22:17:05.853Z,4.15
2023-01-29T22:22:14.457Z,4.17
2023-01-29T22:27:17.224Z,3.84
2023-01-29T22:32:20.017Z,4.13
2023-01-29T22:37:24.231Z,4.27
2023-01-29T22:42:27.794Z,4.20
2023-01-29T22:47:32.667Z,4.23
2023-01-29T22:52:39.268Z,4.42
2023-01-29T22:57:41.994Z,4.51
2023-01-29T23:02:47.636Z,4.56
2023-01-29T23:07:51.540Z,4.70
2023-01-29T23:12:54.103Z,4.32
2023-01-29T23:17:56.685Z,4.46
2023-01-29T23:23:00.661Z,4.29
2023-01-29T23:28:03.222Z,4.39
2023-01-29T23:33:05.856Z,4.44
2023-01-29T23:38:10.981Z,4.30
2023-01-29T23:43:13.542Z,4.39
2023-01-29T23:48:16.107Z,4.59
2023-01-29T23:53:20.017Z,4.60
2023-01-29T23:58:22.586Z,4.38
